sensor_id;sensor_type;location;lat;lon;timestamp;temperature;humidity
18898;DHT22;9581;49.484;8.556;2022-12-29T00:00:09;10.70;99.90
18898;DHT22;9581;49.484;8.556;2022-12-29T00:02:36;10.70;99.90
18898;DHT22;9581;49.484;8.556;2022-12-29T00:05:03;10.70;99.90
18898;DHT22;9581;49.484;8.556;2022-12-29T00:07:32;10.80;99.90
18898;DHT22;9581;49.484;8.556;2022-12-29T00:09:58;10.90;99.90
18898;DHT22;9581;49.484;8.556;2022-12-29T00:12:25;10.90;99.90
18898;DHT22;9581;49.484;8.556;2022-12-29T00:15:12;11.00;99.90
18898;DHT22;9581;49.484;8.556;2022-12-29T00:17:57;11.00;99.90
18898;DHT22;9581;49.484;8.556;2022-12-29T00:20:24;11.00;99.90
18898;DHT22;9581;49.484;8.556;2022-12-29T00:23:10;10.90;99.90
18898;DHT22;9581;49.484;8.556;2022-12-29T00:25:55;11.10;99.90
18898;DHT22;9581;49.484;8.556;2022-12-29T00:28:39;11.10;99.90
18898;DHT22;9581;49.484;8.556;2022-12-29T00:31:24;11.30;99.90
18898;DHT22;9581;49.484;8.556;2022-12-29T00:34:10;11.50;99.90
18898;DHT22;9581;49.484;8.556;2022-12-29T00:37:00;11.50;99.90
18898;DHT22;9581;49.484;8.556;2022-12-29T00:39:28;11.60;99.90
18898;DHT22;9581;49.484;8.556;2022-12-29T00:42:12;11.70;99.90
18898;DHT22;9581;49.484;8.556;2022-12-29T00:44:59;11.70;99.90
18898;DHT22;9581;49.484;8.556;2022-12-29T00:47:25;11.70;99.90
18898;DHT22;9581;49.484;8.556;2022-12-29T00:49:52;11.60;99.90
18898;DHT22;9581;49.484;8.556;2022-12-29T00:52:18;11.40;99.90
18898;DHT22;9581;49.484;8.556;2022-12-29T00:54:46;11.30;99.90
18898;DHT22;9581;49.484;8.556;2022-12-29T00:57:13;11.20;99.90
18898;DHT22;9581;49.484;8.556;2022-12-29T00:59:41;11.10;99.90
18898;DHT22;9581;49.484;8.556;2022-12-29T01:02:09;11.00;99.90
18898;DHT22;9581;49.484;8.556;2022-12-29T01:04:36;11.00;99.90
18898;DHT22;9581;49.484;8.556;2022-12-29T01:07:03;10.90;99.90
18898;DHT22;9581;49.484;8.556;2022-12-29T01:09:31;10.90;99.90
18898;DHT22;9581;49.484;8.556;2022-12-29T01:12:17;10.80;99.90
18898;DHT22;9581;49.484;8.556;2022-12-29T01:15:06;10.70;99.90
18898;DHT22;9581;49.484;8.556;2022-12-29T01:17:32;10.70;99.90
18898;DHT22;9581;49.484;8.556;2022-12-29T01:19:59;10.80;99.90
18898;DHT22;9581;49.484;8.556;2022-12-29T01:22:26;10.90;99.90
18898;DHT22;9581;49.484;8.556;2022-12-29T01:24:53;10.90;99.90
18898;DHT22;9581;49.484;8.556;2022-12-29T01:27:21;10.90;99.90
18898;DHT22;9581;49.484;8.556;2022-12-29T01:29:48;11.00;99.90
18898;DHT22;9581;49.484;8.556;2022-12-29T01:32:15;11.30;99.90
18898;DHT22;9581;49.484;8.556;2022-12-29T01:34:41;11.50;99.90
18898;DHT22;9581;49.484;8.556;2022-12-29T01:37:08;11.80;99.90
18898;DHT22;9581;49.484;8.556;2022-12-29T01:39:35;11.70;99.90
18898;DHT22;9581;49.484;8.556;2022-12-29T01:42:02;11.80;99.90
18898;DHT22;9581;49.484;8.556;2022-12-29T01:44:51;11.90;99.90
18898;DHT22;9581;49.484;8.556;2022-12-29T01:47:29;11.80;99.90
18898;DHT22;9581;49.484;8.556;2022-12-29T01:49:58;11.80;99.90
18898;DHT22;9581;49.484;8.556;2022-12-29T01:52:29;11.90;99.90
18898;DHT22;9581;49.484;8.556;2022-12-29T01:54:58;11.80;99.90
18898;DHT22;9581;49.484;8.556;2022-12-29T01:57:30;11.70;99.90
18898;DHT22;9581;49.484;8.556;2022-12-29T02:00:03;11.80;99.90
18898;DHT22;9581;49.484;8.556;2022-12-29T02:02:31;11.70;99.90
18898;DHT22;9581;49.484;8.556;2022-12-29T02:04:59;11.80;99.90
18898;DHT22;9581;49.484;8.556;2022-12-29T02:07:31;11.80;99.90
18898;DHT22;9581;49.484;8.556;2022-12-29T02:09:59;11.80;99.90
18898;DHT22;9581;49.484;8.556;2022-12-29T02:12:26;11.90;99.90
18898;DHT22;9581;49.484;8.556;2022-12-29T02:14:56;11.90;99.90
18898;DHT22;9581;49.484;8.556;2022-12-29T02:17:39;11.80;99.90
18898;DHT22;9581;49.484;8.556;2022-12-29T02:20:33;11.80;99.90
18898;DHT22;9581;49.484;8.556;2022-12-29T02:26:16;11.90;99.90
18898;DHT22;9581;49.484;8.556;2022-12-29T02:31:52;11.80;99.90
18898;DHT22;9581;49.484;8.556;2022-12-29T02:34:26;11.70;99.90
18898;DHT22;9581;49.484;8.556;2022-12-29T02:37:00;11.70;99.90
18898;DHT22;9581;49.484;8.556;2022-12-29T02:39:34;11.70;99.90
18898;DHT22;9581;49.484;8.556;2022-12-29T02:42:08;11.70;99.90
18898;DHT22;9581;49.484;8.556;2022-12-29T02:44:45;11.60;99.90
18898;DHT22;9581;49.484;8.556;2022-12-29T02:47:23;11.70;99.90
18898;DHT22;9581;49.484;8.556;2022-12-29T02:49:57;11.60;99.90
18898;DHT22;9581;49.484;8.556;2022-12-29T02:52:29;11.60;99.90
18898;DHT22;9581;49.484;8.556;2022-12-29T02:54:57;11.60;99.90
18898;DHT22;9581;49.484;8.556;2022-12-29T02:57:30;11.60;99.90
18898;DHT22;9581;49.484;8.556;2022-12-29T03:00:00;11.60;99.90
18898;DHT22;9581;49.484;8.556;2022-12-29T03:02:48;11.60;99.90
18898;DHT22;9581;49.484;8.556;2022-12-29T03:05:28;11.60;99.90
18898;DHT22;9581;49.484;8.556;2022-12-29T03:08:03;11.60;99.90
18898;DHT22;9581;49.484;8.556;2022-12-29T03:10:39;11.70;99.90
18898;DHT22;9581;49.484;8.556;2022-12-29T03:13:13;11.70;99.90
18898;DHT22;9581;49.484;8.556;2022-12-29T03:16:05;11.60;99.90
18898;DHT22;9581;49.484;8.556;2022-12-29T03:18:44;11.70;99.90
18898;DHT22;9581;49.484;8.556;2022-12-29T03:21:16;11.70;99.90
18898;DHT22;9581;49.484;8.556;2022-12-29T03:23:45;11.70;99.90
18898;DHT22;9581;49.484;8.556;2022-12-29T03:26:16;11.80;99.90
18898;DHT22;9581;49.484;8.556;2022-12-29T03:28:47;11.70;99.90
18898;DHT22;9581;49.484;8.556;2022-12-29T03:31:17;11.80;99.90
18898;DHT22;9581;49.484;8.556;2022-12-29T03:33:47;11.80;99.90
18898;DHT22;9581;49.484;8.556;2022-12-29T03:36:18;11.80;99.90
18898;DHT22;9581;49.484;8.556;2022-12-29T03:38:50;11.90;99.90
18898;DHT22;9581;49.484;8.556;2022-12-29T03:41:24;11.90;99.90
18898;DHT22;9581;49.484;8.556;2022-12-29T03:43:52;11.90;99.90
18898;DHT22;9581;49.484;8.556;2022-12-29T03:46:19;11.90;99.90
18898;DHT22;9581;49.484;8.556;2022-12-29T03:48:47;11.90;99.90
18898;DHT22;9581;49.484;8.556;2022-12-29T03:51:13;12.00;99.90
18898;DHT22;9581;49.484;8.556;2022-12-29T03:53:41;12.00;99.90
18898;DHT22;9581;49.484;8.556;2022-12-29T03:56:07;12.00;99.90
18898;DHT22;9581;49.484;8.556;2022-12-29T03:58:34;12.00;99.90
18898;DHT22;9581;49.484;8.556;2022-12-29T04:01:01;11.90;99.90
18898;DHT22;9581;49.484;8.556;2022-12-29T04:03:28;11.90;99.90
18898;DHT22;9581;49.484;8.556;2022-12-29T04:05:56;11.90;99.90
18898;DHT22;9581;49.484;8.556;2022-12-29T04:08:23;11.90;99.90
18898;DHT22;9581;49.484;8.556;2022-12-29T04:10:49;11.90;99.90
18898;DHT22;9581;49.484;8.556;2022-12-29T04:13:17;11.90;99.90
18898;DHT22;9581;49.484;8.556;2022-12-29T04:15:43;11.90;99.90
18898;DHT22;9581;49.484;8.556;2022-12-29T04:18:10;11.90;99.90
18898;DHT22;9581;49.484;8.556;2022-12-29T04:20:37;11.90;99.90
18898;DHT22;9581;49.484;8.556;2022-12-29T04:23:23;11.90;99.90
18898;DHT22;9581;49.484;8.556;2022-12-29T04:25:50;11.90;99.90
18898;DHT22;9581;49.484;8.556;2022-12-29T04:28:17;11.90;99.90
18898;DHT22;9581;49.484;8.556;2022-12-29T04:30:44;11.90;99.90
18898;DHT22;9581;49.484;8.556;2022-12-29T04:33:11;12.00;99.90
18898;DHT22;9581;49.484;8.556;2022-12-29T04:35:38;12.00;99.90
18898;DHT22;9581;49.484;8.556;2022-12-29T04:38:05;12.00;99.90
18898;DHT22;9581;49.484;8.556;2022-12-29T04:40:33;12.00;99.90
18898;DHT22;9581;49.484;8.556;2022-12-29T04:42:59;11.90;99.90
18898;DHT22;9581;49.484;8.556;2022-12-29T04:45:26;11.90;99.90
18898;DHT22;9581;49.484;8.556;2022-12-29T04:47:53;12.00;99.90
18898;DHT22;9581;49.484;8.556;2022-12-29T04:50:20;12.00;99.90
18898;DHT22;9581;49.484;8.556;2022-12-29T04:52:46;12.00;99.90
18898;DHT22;9581;49.484;8.556;2022-12-29T04:55:13;12.00;99.90
18898;DHT22;9581;49.484;8.556;2022-12-29T04:57:42;11.90;99.90
18898;DHT22;9581;49.484;8.556;2022-12-29T05:00:09;12.00;99.90
18898;DHT22;9581;49.484;8.556;2022-12-29T05:02:37;12.00;99.90
18898;DHT22;9581;49.484;8.556;2022-12-29T05:05:04;11.90;99.90
18898;DHT22;9581;49.484;8.556;2022-12-29T05:07:31;12.00;99.90
18898;DHT22;9581;49.484;8.556;2022-12-29T05:09:58;12.00;99.90
18898;DHT22;9581;49.484;8.556;2022-12-29T05:12:25;12.00;99.90
18898;DHT22;9581;49.484;8.556;2022-12-29T05:14:53;12.00;99.90
18898;DHT22;9581;49.484;8.556;2022-12-29T05:17:20;12.10;99.90
18898;DHT22;9581;49.484;8.556;2022-12-29T05:19:47;12.00;99.90
18898;DHT22;9581;49.484;8.556;2022-12-29T05:22:13;12.10;99.90
18898;DHT22;9581;49.484;8.556;2022-12-29T05:24:40;12.00;99.90
18898;DHT22;9581;49.484;8.556;2022-12-29T05:27:07;12.00;99.90
18898;DHT22;9581;49.484;8.556;2022-12-29T05:29:34;12.10;99.90
18898;DHT22;9581;49.484;8.556;2022-12-29T05:32:02;12.10;99.90
18898;DHT22;9581;49.484;8.556;2022-12-29T05:34:29;12.10;99.90
18898;DHT22;9581;49.484;8.556;2022-12-29T05:36:56;12.10;99.90
18898;DHT22;9581;49.484;8.556;2022-12-29T05:39:23;12.10;99.90
18898;DHT22;9581;49.484;8.556;2022-12-29T05:41:49;12.10;99.90
18898;DHT22;9581;49.484;8.556;2022-12-29T05:44:16;12.10;99.90
18898;DHT22;9581;49.484;8.556;2022-12-29T05:46:43;12.10;99.90
18898;DHT22;9581;49.484;8.556;2022-12-29T05:49:11;12.10;99.90
18898;DHT22;9581;49.484;8.556;2022-12-29T05:51:38;12.00;99.90
18898;DHT22;9581;49.484;8.556;2022-12-29T05:54:05;12.00;99.90
18898;DHT22;9581;49.484;8.556;2022-12-29T05:56:31;12.00;99.90
18898;DHT22;9581;49.484;8.556;2022-12-29T05:58:58;12.10;99.90
18898;DHT22;9581;49.484;8.556;2022-12-29T06:01:25;12.10;99.90
18898;DHT22;9581;49.484;8.556;2022-12-29T06:03:52;12.10;99.90
18898;DHT22;9581;49.484;8.556;2022-12-29T06:06:20;12.10;99.90
18898;DHT22;9581;49.484;8.556;2022-12-29T06:08:47;12.10;99.90
18898;DHT22;9581;49.484;8.556;2022-12-29T06:11:13;12.00;99.90
18898;DHT22;9581;49.484;8.556;2022-12-29T06:13:40;12.10;99.90
18898;DHT22;9581;49.484;8.556;2022-12-29T06:16:08;12.00;99.90
18898;DHT22;9581;49.484;8.556;2022-12-29T06:18:34;12.00;99.90
18898;DHT22;9581;49.484;8.556;2022-12-29T06:21:02;12.00;99.90
18898;DHT22;9581;49.484;8.556;2022-12-29T06:23:30;12.00;99.90
18898;DHT22;9581;49.484;8.556;2022-12-29T06:25:57;12.00;99.90
18898;DHT22;9581;49.484;8.556;2022-12-29T06:28:24;12.00;99.90
18898;DHT22;9581;49.484;8.556;2022-12-29T06:30:51;12.00;99.90
18898;DHT22;9581;49.484;8.556;2022-12-29T06:33:17;12.00;99.90
18898;DHT22;9581;49.484;8.556;2022-12-29T06:35:45;12.00;99.90
18898;DHT22;9581;49.484;8.556;2022-12-29T06:38:12;12.00;99.90
18898;DHT22;9581;49.484;8.556;2022-12-29T06:40:41;11.90;99.90
18898;DHT22;9581;49.484;8.556;2022-12-29T06:43:10;12.00;99.90
18898;DHT22;9581;49.484;8.556;2022-12-29T06:45:37;12.00;99.90
18898;DHT22;9581;49.484;8.556;2022-12-29T06:48:05;11.90;99.90
18898;DHT22;9581;49.484;8.556;2022-12-29T06:50:31;11.90;99.90
18898;DHT22;9581;49.484;8.556;2022-12-29T06:52:58;12.00;99.90
18898;DHT22;9581;49.484;8.556;2022-12-29T06:55:25;12.00;99.90
18898;DHT22;9581;49.484;8.556;2022-12-29T06:57:55;12.00;99.90
18898;DHT22;9581;49.484;8.556;2022-12-29T07:00:22;12.00;99.90
18898;DHT22;9581;49.484;8.556;2022-12-29T07:02:49;12.00;99.90
18898;DHT22;9581;49.484;8.556;2022-12-29T07:05:15;12.00;99.90
18898;DHT22;9581;49.484;8.556;2022-12-29T07:07:42;12.00;99.90
18898;DHT22;9581;49.484;8.556;2022-12-29T07:10:09;12.00;99.90
18898;DHT22;9581;49.484;8.556;2022-12-29T07:12:36;12.00;99.90
18898;DHT22;9581;49.484;8.556;2022-12-29T07:15:04;12.00;99.90
18898;DHT22;9581;49.484;8.556;2022-12-29T07:17:31;12.00;99.90
18898;DHT22;9581;49.484;8.556;2022-12-29T07:19:58;12.10;99.90
18898;DHT22;9581;49.484;8.556;2022-12-29T07:22:25;12.10;99.90
18898;DHT22;9581;49.484;8.556;2022-12-29T07:24:52;12.10;99.90
18898;DHT22;9581;49.484;8.556;2022-12-29T07:27:18;12.10;99.90
18898;DHT22;9581;49.484;8.556;2022-12-29T07:29:45;12.00;99.90
18898;DHT22;9581;49.484;8.556;2022-12-29T07:32:13;12.10;99.90
18898;DHT22;9581;49.484;8.556;2022-12-29T07:34:40;12.10;99.90
18898;DHT22;9581;49.484;8.556;2022-12-29T07:37:07;12.10;99.90
18898;DHT22;9581;49.484;8.556;2022-12-29T07:39:34;12.10;99.90
18898;DHT22;9581;49.484;8.556;2022-12-29T07:42:00;12.10;99.90
18898;DHT22;9581;49.484;8.556;2022-12-29T07:44:27;12.10;99.90
18898;DHT22;9581;49.484;8.556;2022-12-29T07:46:54;12.10;99.90
18898;DHT22;9581;49.484;8.556;2022-12-29T07:49:22;12.10;99.90
18898;DHT22;9581;49.484;8.556;2022-12-29T07:51:49;12.10;99.90
18898;DHT22;9581;49.484;8.556;2022-12-29T07:54:16;12.10;99.90
18898;DHT22;9581;49.484;8.556;2022-12-29T07:56:43;12.10;99.90
18898;DHT22;9581;49.484;8.556;2022-12-29T07:59:10;12.10;99.90
18898;DHT22;9581;49.484;8.556;2022-12-29T08:01:38;12.20;99.90
18898;DHT22;9581;49.484;8.556;2022-12-29T08:04:05;12.20;99.90
18898;DHT22;9581;49.484;8.556;2022-12-29T08:06:33;12.20;99.90
18898;DHT22;9581;49.484;8.556;2022-12-29T08:09:00;12.30;99.90
18898;DHT22;9581;49.484;8.556;2022-12-29T08:11:27;12.30;99.90
18898;DHT22;9581;49.484;8.556;2022-12-29T08:13:54;12.30;99.90
18898;DHT22;9581;49.484;8.556;2022-12-29T08:16:21;12.40;99.90
18898;DHT22;9581;49.484;8.556;2022-12-29T08:18:47;12.40;99.90
18898;DHT22;9581;49.484;8.556;2022-12-29T08:21:14;12.50;99.90
18898;DHT22;9581;49.484;8.556;2022-12-29T08:23:42;12.50;99.90
18898;DHT22;9581;49.484;8.556;2022-12-29T08:26:10;12.50;99.90
18898;DHT22;9581;49.484;8.556;2022-12-29T08:28:37;12.50;99.90
18898;DHT22;9581;49.484;8.556;2022-12-29T08:31:04;12.60;99.90
18898;DHT22;9581;49.484;8.556;2022-12-29T08:33:31;12.60;99.90
18898;DHT22;9581;49.484;8.556;2022-12-29T08:36:01;12.60;99.90
18898;DHT22;9581;49.484;8.556;2022-12-29T08:38:28;12.60;99.90
18898;DHT22;9581;49.484;8.556;2022-12-29T08:40:57;12.70;99.90
18898;DHT22;9581;49.484;8.556;2022-12-29T08:43:25;12.60;99.90
18898;DHT22;9581;49.484;8.556;2022-12-29T08:45:51;12.60;99.90
18898;DHT22;9581;49.484;8.556;2022-12-29T08:48:18;12.60;99.90
18898;DHT22;9581;49.484;8.556;2022-12-29T08:50:48;12.60;99.90
18898;DHT22;9581;49.484;8.556;2022-12-29T08:53:14;12.60;99.90
18898;DHT22;9581;49.484;8.556;2022-12-29T08:55:41;12.70;99.90
18898;DHT22;9581;49.484;8.556;2022-12-29T08:58:09;12.70;99.90
18898;DHT22;9581;49.484;8.556;2022-12-29T09:00:39;12.70;99.90
18898;DHT22;9581;49.484;8.556;2022-12-29T09:03:06;12.70;99.90
18898;DHT22;9581;49.484;8.556;2022-12-29T09:05:33;12.80;99.90
18898;DHT22;9581;49.484;8.556;2022-12-29T09:08:00;12.80;99.90
18898;DHT22;9581;49.484;8.556;2022-12-29T09:10:27;12.70;99.90
18898;DHT22;9581;49.484;8.556;2022-12-29T09:12:53;12.80;99.90
18898;DHT22;9581;49.484;8.556;2022-12-29T09:15:22;12.80;99.90
18898;DHT22;9581;49.484;8.556;2022-12-29T09:17:48;12.80;99.90
18898;DHT22;9581;49.484;8.556;2022-12-29T09:20:17;12.80;99.90
18898;DHT22;9581;49.484;8.556;2022-12-29T09:22:45;12.80;99.90
18898;DHT22;9581;49.484;8.556;2022-12-29T09:25:13;12.70;99.90
18898;DHT22;9581;49.484;8.556;2022-12-29T09:27:40;12.70;99.90
18898;DHT22;9581;49.484;8.556;2022-12-29T09:30:10;12.70;99.90
18898;DHT22;9581;49.484;8.556;2022-12-29T09:32:38;12.80;99.90
18898;DHT22;9581;49.484;8.556;2022-12-29T09:35:05;12.90;99.90
18898;DHT22;9581;49.484;8.556;2022-12-29T09:37:32;13.00;99.90
18898;DHT22;9581;49.484;8.556;2022-12-29T09:39:59;12.90;99.90
18898;DHT22;9581;49.484;8.556;2022-12-29T09:42:29;13.10;99.90
18898;DHT22;9581;49.484;8.556;2022-12-29T09:45:07;13.00;99.90
18898;DHT22;9581;49.484;8.556;2022-12-29T09:47:38;13.10;99.90
18898;DHT22;9581;49.484;8.556;2022-12-29T09:50:09;13.10;99.90
18898;DHT22;9581;49.484;8.556;2022-12-29T09:52:41;13.10;99.90
18898;DHT22;9581;49.484;8.556;2022-12-29T09:55:13;13.10;99.90
18898;DHT22;9581;49.484;8.556;2022-12-29T09:57:45;13.20;99.90
18898;DHT22;9581;49.484;8.556;2022-12-29T10:00:15;13.20;99.90
18898;DHT22;9581;49.484;8.556;2022-12-29T10:02:48;13.20;99.90
18898;DHT22;9581;49.484;8.556;2022-12-29T10:05:27;13.10;99.90
18898;DHT22;9581;49.484;8.556;2022-12-29T10:08:07;13.10;99.90
18898;DHT22;9581;49.484;8.556;2022-12-29T10:10:39;13.10;99.90
18898;DHT22;9581;49.484;8.556;2022-12-29T10:13:18;13.30;99.90
18898;DHT22;9581;49.484;8.556;2022-12-29T10:15:56;13.10;99.90
18898;DHT22;9581;49.484;8.556;2022-12-29T10:18:37;13.20;99.90
18898;DHT22;9581;49.484;8.556;2022-12-29T10:21:18;13.10;99.90
18898;DHT22;9581;49.484;8.556;2022-12-29T10:23:49;13.20;99.90
18898;DHT22;9581;49.484;8.556;2022-12-29T10:26:20;13.20;99.90
18898;DHT22;9581;49.484;8.556;2022-12-29T10:28:50;13.20;99.90
18898;DHT22;9581;49.484;8.556;2022-12-29T10:31:21;13.20;99.90
18898;DHT22;9581;49.484;8.556;2022-12-29T10:33:53;13.10;99.90
18898;DHT22;9581;49.484;8.556;2022-12-29T10:36:27;13.10;99.90
18898;DHT22;9581;49.484;8.556;2022-12-29T10:39:04;13.20;99.90
18898;DHT22;9581;49.484;8.556;2022-12-29T10:41:38;13.10;99.90
18898;DHT22;9581;49.484;8.556;2022-12-29T10:44:11;13.10;99.90
18898;DHT22;9581;49.484;8.556;2022-12-29T10:46:40;13.10;99.90
18898;DHT22;9581;49.484;8.556;2022-12-29T10:49:14;13.10;99.90
18898;DHT22;9581;49.484;8.556;2022-12-29T10:51:42;13.10;99.90
18898;DHT22;9581;49.484;8.556;2022-12-29T10:54:14;13.10;99.90
18898;DHT22;9581;49.484;8.556;2022-12-29T10:56:44;13.10;99.90
18898;DHT22;9581;49.484;8.556;2022-12-29T10:59:16;13.30;99.90
18898;DHT22;9581;49.484;8.556;2022-12-29T11:01:52;13.20;99.90
18898;DHT22;9581;49.484;8.556;2022-12-29T11:04:43;13.10;99.90
18898;DHT22;9581;49.484;8.556;2022-12-29T11:07:14;13.20;99.90
18898;DHT22;9581;49.484;8.556;2022-12-29T11:09:43;13.20;99.90
18898;DHT22;9581;49.484;8.556;2022-12-29T11:12:20;13.20;99.90
18898;DHT22;9581;49.484;8.556;2022-12-29T11:14:47;13.30;99.90
18898;DHT22;9581;49.484;8.556;2022-12-29T11:17:15;13.50;99.90
18898;DHT22;9581;49.484;8.556;2022-12-29T11:19:44;13.60;99.90
18898;DHT22;9581;49.484;8.556;2022-12-29T11:22:21;13.80;99.90
18898;DHT22;9581;49.484;8.556;2022-12-29T11:24:50;13.70;99.90
18898;DHT22;9581;49.484;8.556;2022-12-29T11:27:19;13.70;99.90
18898;DHT22;9581;49.484;8.556;2022-12-29T11:29:49;13.80;99.90
18898;DHT22;9581;49.484;8.556;2022-12-29T11:32:19;13.70;99.90
18898;DHT22;9581;49.484;8.556;2022-12-29T11:34:48;13.80;99.90
18898;DHT22;9581;49.484;8.556;2022-12-29T11:37:17;13.70;99.90
18898;DHT22;9581;49.484;8.556;2022-12-29T11:39:50;13.60;99.90
18898;DHT22;9581;49.484;8.556;2022-12-29T11:42:21;13.50;99.90
18898;DHT22;9581;49.484;8.556;2022-12-29T11:44:50;13.50;99.90
18898;DHT22;9581;49.484;8.556;2022-12-29T11:47:27;13.40;99.90
18898;DHT22;9581;49.484;8.556;2022-12-29T11:49:58;13.40;99.90
18898;DHT22;9581;49.484;8.556;2022-12-29T11:52:29;13.40;99.90
18898;DHT22;9581;49.484;8.556;2022-12-29T11:55:00;13.40;99.90
18898;DHT22;9581;49.484;8.556;2022-12-29T11:57:28;13.30;99.90
18898;DHT22;9581;49.484;8.556;2022-12-29T11:59:55;13.30;99.90
18898;DHT22;9581;49.484;8.556;2022-12-29T12:02:42;13.30;99.90
18898;DHT22;9581;49.484;8.556;2022-12-29T12:05:27;13.30;99.90
18898;DHT22;9581;49.484;8.556;2022-12-29T12:08:01;13.30;99.90
18898;DHT22;9581;49.484;8.556;2022-12-29T12:10:32;13.30;99.90
18898;DHT22;9581;49.484;8.556;2022-12-29T12:13:08;13.30;99.90
18898;DHT22;9581;49.484;8.556;2022-12-29T12:15:41;13.30;99.90
18898;DHT22;9581;49.484;8.556;2022-12-29T12:18:11;13.30;99.90
18898;DHT22;9581;49.484;8.556;2022-12-29T12:20:45;13.30;99.90
18898;DHT22;9581;49.484;8.556;2022-12-29T12:23:27;13.20;99.90
18898;DHT22;9581;49.484;8.556;2022-12-29T12:26:04;13.10;99.90
18898;DHT22;9581;49.484;8.556;2022-12-29T12:28:42;13.10;99.90
18898;DHT22;9581;49.484;8.556;2022-12-29T12:31:18;13.10;99.90
18898;DHT22;9581;49.484;8.556;2022-12-29T12:33:50;13.10;99.90
18898;DHT22;9581;49.484;8.556;2022-12-29T12:36:28;13.10;99.90
18898;DHT22;9581;49.484;8.556;2022-12-29T12:39:02;13.00;99.90
18898;DHT22;9581;49.484;8.556;2022-12-29T12:41:42;13.00;99.90
18898;DHT22;9581;49.484;8.556;2022-12-29T12:44:15;13.10;99.90
18898;DHT22;9581;49.484;8.556;2022-12-29T12:50:18;13.10;99.90
18898;DHT22;9581;49.484;8.556;2022-12-29T12:53:07;13.00;99.90
18898;DHT22;9581;49.484;8.556;2022-12-29T12:56:00;12.90;99.90
18898;DHT22;9581;49.484;8.556;2022-12-29T12:58:35;12.80;99.90
18898;DHT22;9581;49.484;8.556;2022-12-29T13:01:18;12.90;99.90
18898;DHT22;9581;49.484;8.556;2022-12-29T13:06:50;13.00;99.90
18898;DHT22;9581;49.484;8.556;2022-12-29T13:09:36;13.00;99.90
18898;DHT22;9581;49.484;8.556;2022-12-29T13:12:19;13.10;99.90
18898;DHT22;9581;49.484;8.556;2022-12-29T13:14:57;13.10;99.90
18898;DHT22;9581;49.484;8.556;2022-12-29T13:17:32;13.10;99.90
18898;DHT22;9581;49.484;8.556;2022-12-29T13:20:06;13.10;99.90
18898;DHT22;9581;49.484;8.556;2022-12-29T13:22:43;13.10;99.90
18898;DHT22;9581;49.484;8.556;2022-12-29T13:25:25;13.10;99.90
18898;DHT22;9581;49.484;8.556;2022-12-29T13:27:58;13.00;99.90
18898;DHT22;9581;49.484;8.556;2022-12-29T13:30:31;13.10;99.90
18898;DHT22;9581;49.484;8.556;2022-12-29T13:33:05;12.90;99.90
18898;DHT22;9581;49.484;8.556;2022-12-29T13:35:53;12.90;99.90
18898;DHT22;9581;49.484;8.556;2022-12-29T13:38:23;12.80;99.90
18898;DHT22;9581;49.484;8.556;2022-12-29T13:40:55;12.70;99.90
18898;DHT22;9581;49.484;8.556;2022-12-29T13:43:23;12.60;99.90
18898;DHT22;9581;49.484;8.556;2022-12-29T13:45:59;12.60;99.90
18898;DHT22;9581;49.484;8.556;2022-12-29T13:48:36;12.70;99.90
18898;DHT22;9581;49.484;8.556;2022-12-29T13:51:04;12.50;99.90
18898;DHT22;9581;49.484;8.556;2022-12-29T13:53:36;12.40;99.90
18898;DHT22;9581;49.484;8.556;2022-12-29T13:56:11;12.30;99.90
18898;DHT22;9581;49.484;8.556;2022-12-29T13:58:43;12.20;99.90
18898;DHT22;9581;49.484;8.556;2022-12-29T14:01:17;12.10;99.90
18898;DHT22;9581;49.484;8.556;2022-12-29T14:03:49;12.00;99.90
18898;DHT22;9581;49.484;8.556;2022-12-29T14:06:22;12.00;99.90
18898;DHT22;9581;49.484;8.556;2022-12-29T14:08:51;11.90;99.90
18898;DHT22;9581;49.484;8.556;2022-12-29T14:11:22;11.90;99.90
18898;DHT22;9581;49.484;8.556;2022-12-29T14:13:50;11.80;99.90
18898;DHT22;9581;49.484;8.556;2022-12-29T14:16:27;11.70;99.90
18898;DHT22;9581;49.484;8.556;2022-12-29T14:18:55;11.70;99.90
18898;DHT22;9581;49.484;8.556;2022-12-29T14:21:25;11.70;99.90
18898;DHT22;9581;49.484;8.556;2022-12-29T14:26:44;11.50;99.90
18898;DHT22;9581;49.484;8.556;2022-12-29T14:29:45;11.50;99.90
18898;DHT22;9581;49.484;8.556;2022-12-29T14:32:36;11.50;99.90
18898;DHT22;9581;49.484;8.556;2022-12-29T14:35:38;11.50;99.90
18898;DHT22;9581;49.484;8.556;2022-12-29T14:38:07;11.40;99.90
18898;DHT22;9581;49.484;8.556;2022-12-29T14:40:40;11.40;99.90
18898;DHT22;9581;49.484;8.556;2022-12-29T14:43:16;11.40;99.90
18898;DHT22;9581;49.484;8.556;2022-12-29T14:45:52;11.40;99.90
18898;DHT22;9581;49.484;8.556;2022-12-29T14:48:36;11.40;99.90
18898;DHT22;9581;49.484;8.556;2022-12-29T14:51:18;11.30;99.90
18898;DHT22;9581;49.484;8.556;2022-12-29T14:53:48;11.40;99.90
18898;DHT22;9581;49.484;8.556;2022-12-29T14:56:17;11.30;99.90
18898;DHT22;9581;49.484;8.556;2022-12-29T14:58:48;11.40;99.90
18898;DHT22;9581;49.484;8.556;2022-12-29T15:01:22;11.40;99.90
18898;DHT22;9581;49.484;8.556;2022-12-29T15:03:53;11.20;99.90
18898;DHT22;9581;49.484;8.556;2022-12-29T15:06:22;11.10;99.90
18898;DHT22;9581;49.484;8.556;2022-12-29T15:08:52;11.20;99.90
18898;DHT22;9581;49.484;8.556;2022-12-29T15:11:22;11.30;99.90
18898;DHT22;9581;49.484;8.556;2022-12-29T15:13:51;11.20;99.90
18898;DHT22;9581;49.484;8.556;2022-12-29T15:16:23;11.20;99.90
18898;DHT22;9581;49.484;8.556;2022-12-29T15:18:51;11.20;99.90
18898;DHT22;9581;49.484;8.556;2022-12-29T15:21:21;11.20;99.90
18898;DHT22;9581;49.484;8.556;2022-12-29T15:23:50;11.20;99.90
18898;DHT22;9581;49.484;8.556;2022-12-29T15:26:17;11.20;99.90
18898;DHT22;9581;49.484;8.556;2022-12-29T15:28:48;11.20;99.90
18898;DHT22;9581;49.484;8.556;2022-12-29T15:31:19;11.10;99.90
18898;DHT22;9581;49.484;8.556;2022-12-29T15:33:48;11.10;99.90
18898;DHT22;9581;49.484;8.556;2022-12-29T15:36:19;11.10;99.90
18898;DHT22;9581;49.484;8.556;2022-12-29T15:38:47;11.00;99.90
18898;DHT22;9581;49.484;8.556;2022-12-29T15:41:26;10.90;99.90
18898;DHT22;9581;49.484;8.556;2022-12-29T15:44:02;10.80;99.90
18898;DHT22;9581;49.484;8.556;2022-12-29T15:46:35;10.90;99.90
18898;DHT22;9581;49.484;8.556;2022-12-29T15:49:05;10.90;99.90
18898;DHT22;9581;49.484;8.556;2022-12-29T15:51:35;10.80;99.90
18898;DHT22;9581;49.484;8.556;2022-12-29T15:54:03;10.80;99.90
18898;DHT22;9581;49.484;8.556;2022-12-29T15:56:31;10.80;99.90
18898;DHT22;9581;49.484;8.556;2022-12-29T15:59:00;10.80;99.90
18898;DHT22;9581;49.484;8.556;2022-12-29T16:01:29;10.80;99.90
18898;DHT22;9581;49.484;8.556;2022-12-29T16:04:00;10.80;99.90
18898;DHT22;9581;49.484;8.556;2022-12-29T16:06:32;10.90;99.90
18898;DHT22;9581;49.484;8.556;2022-12-29T16:09:01;11.00;99.90
18898;DHT22;9581;49.484;8.556;2022-12-29T16:11:32;10.90;99.90
18898;DHT22;9581;49.484;8.556;2022-12-29T16:14:01;11.00;99.90
18898;DHT22;9581;49.484;8.556;2022-12-29T16:16:30;10.90;99.90
18898;DHT22;9581;49.484;8.556;2022-12-29T16:19:01;11.00;99.90
18898;DHT22;9581;49.484;8.556;2022-12-29T16:21:34;11.00;99.90
18898;DHT22;9581;49.484;8.556;2022-12-29T16:24:05;11.00;99.90